Time;durP1;ratioP1;P1;durP2;ratioP2;P2;SDS_P1;SDS_P2;PMS_P1;PMS_P2;Temp;Humidity;BMP_temperature;BMP_pressure;BME280_temperature;BME280_humidity;BME280_pressure;Samples;Min_cycle;Max_cycle;Signal;HPM_P1;HPM_P2
2024/01/20 00:01:07;;;;;;;2.70;2.50;;;;;;;;;;5117652;28;20638;-63
2024/01/20 00:03:35;;;;;;;2.75;2.47;;;;;;;;;;5117937;28;20211;-63
2024/01/20 00:06:02;;;;;;;2.83;2.53;;;;;;;;;;5117873;28;20203;-63
2024/01/20 00:08:30;;;;;;;3.15;2.85;;;;;;;;;;5117490;28;20214;-63
2024/01/20 00:10:58;;;;;;;2.60;2.40;;;;;;;;;;5118024;28;20232;-63
2024/01/20 00:13:25;;;;;;;3.28;2.83;;;;;;;;;;5117960;28;20210;-63
2024/01/20 00:15:53;;;;;;;2.80;2.50;;;;;;;;;;5117359;28;20234;-63
2024/01/20 00:18:22;;;;;;;2.65;2.45;;;;;;;;;;5117711;28;20203;-64
2024/01/20 00:20:50;;;;;;;3.17;2.88;;;;;;;;;;5117409;28;20203;-64
2024/01/20 00:23:18;;;;;;;2.50;2.30;;;;;;;;;;5117039;28;20699;-63
2024/01/20 00:25:46;;;;;;;2.83;2.63;;;;;;;;;;5117325;28;20207;-64
2024/01/20 00:28:13;;;;;;;2.70;2.50;;;;;;;;;;5117648;28;20203;-64
2024/01/20 00:30:41;;;;;;;2.55;2.35;;;;;;;;;;5117232;28;20211;-63
2024/01/20 00:33:08;;;;;;;2.65;2.30;;;;;;;;;;5117511;28;20532;-63
2024/01/20 00:35:42;;;;;;;2.63;2.42;;;;;;;;;;5117011;28;20287;-64
2024/01/20 00:38:11;;;;;;;2.35;2.15;;;;;;;;;;5117553;28;20206;-63
2024/01/20 00:40:38;;;;;;;2.60;2.40;;;;;;;;;;5117525;28;20480;-63
2024/01/20 00:43:06;;;;;;;2.88;2.50;;;;;;;;;;5117531;28;20211;-63
2024/01/20 00:45:33;;;;;;;2.17;1.95;;;;;;;;;;5110942;28;20207;-63
2024/01/20 00:48:01;;;;;;;3.03;2.65;;;;;;;;;;5121633;28;20195;-63
2024/01/20 00:50:28;;;;;;;2.72;2.53;;;;;;;;;;5120943;28;20624;-63
2024/01/20 00:53:00;;;;;;;2.58;2.20;;;;;;;;;;5121277;28;20202;-64
2024/01/20 00:55:30;;;;;;;2.60;2.20;;;;;;;;;;5120572;28;20238;-63
2024/01/20 00:57:57;;;;;;;2.67;2.47;;;;;;;;;;5121093;28;20242;-63
2024/01/20 01:00:25;;;;;;;2.78;2.40;;;;;;;;;;5120877;28;20512;-63
2024/01/20 01:02:52;;;;;;;2.97;2.67;;;;;;;;;;5121049;28;20199;-63
2024/01/20 01:05:20;;;;;;;2.92;2.50;;;;;;;;;;5121108;28;20199;-63
2024/01/20 01:07:48;;;;;;;2.92;2.42;;;;;;;;;;5121187;28;20319;-63
2024/01/20 01:10:18;;;;;;;2.42;2.22;;;;;;;;;;5120764;28;20591;-63
2024/01/20 01:12:45;;;;;;;2.65;2.45;;;;;;;;;;5120858;28;20214;-63
2024/01/20 01:15:13;;;;;;;2.83;2.20;;;;;;;;;;5121087;28;20317;-63
2024/01/20 01:17:40;;;;;;;2.88;2.53;;;;;;;;;;5120902;28;20458;-63
2024/01/20 01:20:10;;;;;;;2.55;2.35;;;;;;;;;;5120541;28;20203;-64
2024/01/20 01:22:37;;;;;;;3.33;2.70;;;;;;;;;;5120808;28;20298;-64
2024/01/20 01:25:05;;;;;;;2.80;2.42;;;;;;;;;;5120742;28;20199;-64
2024/01/20 01:27:34;;;;;;;2.97;2.40;;;;;;;;;;5120220;28;20568;-63
2024/01/20 01:30:01;;;;;;;2.40;2.20;;;;;;;;;;5121085;28;20532;-63
2024/01/20 01:32:29;;;;;;;3.00;2.30;;;;;;;;;;5120448;28;20525;-63
2024/01/20 01:34:57;;;;;;;3.63;2.53;;;;;;;;;;5120677;28;20229;-63
2024/01/20 01:37:24;;;;;;;2.63;2.42;;;;;;;;;;5120514;28;20211;-63
2024/01/20 01:39:52;;;;;;;3.00;2.20;;;;;;;;;;5120629;28;20203;-63
2024/01/20 01:42:20;;;;;;;3.22;2.38;;;;;;;;;;5120348;28;20265;-64
2024/01/20 01:44:49;;;;;;;2.70;2.30;;;;;;;;;;5120420;28;20264;-63
2024/01/20 01:47:16;;;;;;;2.53;2.30;;;;;;;;;;5120592;28;20225;-63
2024/01/20 01:49:44;;;;;;;2.65;2.20;;;;;;;;;;5120054;28;20575;-63
2024/01/20 01:52:12;;;;;;;2.33;2.00;;;;;;;;;;5120477;28;20210;-63
2024/01/20 01:54:39;;;;;;;2.60;2.40;;;;;;;;;;5120226;28;20242;-63
2024/01/20 01:57:07;;;;;;;2.60;2.40;;;;;;;;;;5119365;28;20223;-64
2024/01/20 01:59:36;;;;;;;3.50;2.70;;;;;;;;;;5120046;28;20229;-63
2024/01/20 02:02:05;;;;;;;2.90;2.60;;;;;;;;;;5120075;28;20329;-63
2024/01/20 02:04:33;;;;;;;2.60;2.38;;;;;;;;;;5119812;28;20247;-63
2024/01/20 02:07:00;;;;;;;2.35;2.15;;;;;;;;;;5119997;28;20294;-63
2024/01/20 02:09:28;;;;;;;2.60;2.10;;;;;;;;;;5119967;28;20646;-63
2024/01/20 02:11:55;;;;;;;2.67;2.42;;;;;;;;;;5120285;28;20267;-63
2024/01/20 02:14:23;;;;;;;2.55;2.35;;;;;;;;;;5119619;28;20301;-63
2024/01/20 02:16:51;;;;;;;2.50;2.30;;;;;;;;;;5119014;28;20310;-63
2024/01/20 02:19:20;;;;;;;2.78;2.58;;;;;;;;;;5120201;28;20579;-63
2024/01/20 02:21:48;;;;;;;2.70;2.45;;;;;;;;;;5120295;28;20203;-64
2024/01/20 02:24:17;;;;;;;2.65;2.40;;;;;;;;;;5101064;28;20199;-63
2024/01/20 02:26:44;;;;;;;3.00;2.70;;;;;;;;;;5120158;28;20203;-63
2024/01/20 02:29:12;;;;;;;3.10;2.30;;;;;;;;;;5119336;28;20206;-63
2024/01/20 02:31:40;;;;;;;2.42;2.22;;;;;;;;;;5119071;28;20530;-63
2024/01/20 02:34:10;;;;;;;2.88;2.40;;;;;;;;;;5119797;28;20210;-63
2024/01/20 02:36:37;;;;;;;2.70;2.50;;;;;;;;;;5119685;28;20230;-63
2024/01/20 02:39:05;;;;;;;2.67;2.47;;;;;;;;;;5119687;28;20494;-63
2024/01/20 02:41:34;;;;;;;2.28;2.08;;;;;;;;;;5119425;28;20203;-63
2024/01/20 02:44:02;;;;;;;2.28;2.08;;;;;;;;;;5119516;28;20214;-63
2024/01/20 02:46:29;;;;;;;2.92;2.58;;;;;;;;;;5118901;28;20195;-64
2024/01/20 02:48:57;;;;;;;2.35;2.15;;;;;;;;;;5119453;28;20214;-64
2024/01/20 02:51:24;;;;;;;2.53;2.30;;;;;;;;;;5119449;28;20222;-63
2024/01/20 02:53:52;;;;;;;2.47;2.28;;;;;;;;;;5119231;28;20618;-63
2024/01/20 02:56:22;;;;;;;2.40;2.20;;;;;;;;;;5119461;28;20226;-64
2024/01/20 02:58:51;;;;;;;2.53;2.33;;;;;;;;;;5118892;28;20220;-64
2024/01/20 03:01:19;;;;;;;2.40;2.20;;;;;;;;;;5118713;28;20329;-63
2024/01/20 03:03:46;;;;;;;2.40;2.20;;;;;;;;;;5118961;28;20571;-64
2024/01/20 03:06:14;;;;;;;2.70;2.50;;;;;;;;;;5118655;28;20208;-63
2024/01/20 03:08:41;;;;;;;2.60;2.35;;;;;;;;;;5117762;28;20498;-63
2024/01/20 03:11:09;;;;;;;2.90;2.53;;;;;;;;;;5118521;28;20202;-63
2024/01/20 03:13:36;;;;;;;2.38;2.17;;;;;;;;;;5118603;28;20317;-63
2024/01/20 03:16:08;;;;;;;2.53;2.33;;;;;;;;;;5118638;28;20223;-63
2024/01/20 03:18:37;;;;;;;2.75;2.55;;;;;;;;;;5118881;28;20202;-63
2024/01/20 03:21:05;;;;;;;2.58;2.38;;;;;;;;;;5118439;28;20252;-63
2024/01/20 03:23:32;;;;;;;2.60;2.40;;;;;;;;;;5118684;28;20649;-64
2024/01/20 03:26:00;;;;;;;2.38;2.17;;;;;;;;;;5118949;28;20241;-64
2024/01/20 03:28:28;;;;;;;2.85;2.40;;;;;;;;;;5118514;28;20207;-64
2024/01/20 03:30:56;;;;;;;2.55;2.35;;;;;;;;;;5118242;28;20203;-63
2024/01/20 03:33:25;;;;;;;2.42;2.20;;;;;;;;;;5118208;28;20203;-63
2024/01/20 03:35:53;;;;;;;2.45;2.20;;;;;;;;;;5118415;28;20226;-63
2024/01/20 03:38:20;;;;;;;2.88;2.40;;;;;;;;;;5118402;28;20238;-64
2024/01/20 03:40:48;;;;;;;2.40;2.15;;;;;;;;;;5118466;28;20552;-63
2024/01/20 03:43:15;;;;;;;2.78;2.58;;;;;;;;;;5118190;28;20312;-63
2024/01/20 03:45:44;;;;;;;2.53;2.20;;;;;;;;;;5118337;28;20214;-63
2024/01/20 03:48:12;;;;;;;2.95;2.38;;;;;;;;;;5118652;28;20542;-63
2024/01/20 03:50:41;;;;;;;2.38;2.17;;;;;;;;;;5118334;28;20268;-63
2024/01/20 03:53:08;;;;;;;2.70;2.50;;;;;;;;;;5118070;28;20203;-63
2024/01/20 03:55:36;;;;;;;2.40;2.20;;;;;;;;;;5118032;28;20203;-64
2024/01/20 03:58:03;;;;;;;2.78;2.53;;;;;;;;;;5117685;28;20238;-64
2024/01/20 04:00:31;;;;;;;2.50;2.30;;;;;;;;;;5117973;28;20230;-63
2024/01/20 04:02:59;;;;;;;2.53;2.22;;;;;;;;;;5117743;28;20263;-63
2024/01/20 04:05:26;;;;;;;2.50;2.30;;;;;;;;;;5117775;28;20610;-63
2024/01/20 04:07:55;;;;;;;2.80;2.60;;;;;;;;;;5118331;28;20279;-63
2024/01/20 04:10:23;;;;;;;2.30;2.10;;;;;;;;;;5117797;28;20567;-63
2024/01/20 04:12:50;;;;;;;2.50;2.30;;;;;;;;;;5117165;28;20207;-63
2024/01/20 04:15:18;;;;;;;2.72;2.50;;;;;;;;;;5117247;28;20203;-64
2024/01/20 04:17:46;;;;;;;2.30;2.10;;;;;;;;;;5117274;28;20291;-63
2024/01/20 04:20:14;;;;;;;2.72;2.30;;;;;;;;;;5117009;28;20238;-63
2024/01/20 04:22:41;;;;;;;2.65;2.45;;;;;;;;;;5117508;28;20211;-64
2024/01/20 04:25:11;;;;;;;2.42;2.22;;;;;;;;;;5117475;28;20228;-64
2024/01/20 04:27:40;;;;;;;2.63;2.42;;;;;;;;;;5117755;28;20659;-63
2024/01/20 04:30:08;;;;;;;2.63;2.40;;;;;;;;;;5117158;28;20213;-63
2024/01/20 04:32:36;;;;;;;2.83;2.38;;;;;;;;;;5117554;28;20203;-63
2024/01/20 04:35:03;;;;;;;2.42;2.22;;;;;;;;;;5117513;28;20260;-64
2024/01/20 04:37:31;;;;;;;2.65;2.40;;;;;;;;;;5117477;28;20526;-64
2024/01/20 04:39:58;;;;;;;2.63;2.42;;;;;;;;;;5117125;28;20702;-64
2024/01/20 04:42:28;;;;;;;2.47;2.28;;;;;;;;;;5117371;28;20279;-63
2024/01/20 04:44:56;;;;;;;2.72;2.53;;;;;;;;;;5117228;28;20647;-64
2024/01/20 04:47:23;;;;;;;2.25;2.10;;;;;;;;;;5116833;28;20199;-63
2024/01/20 04:49:53;;;;;;;2.78;2.58;;;;;;;;;;5117523;28;20203;-63
2024/01/20 04:52:21;;;;;;;3.22;2.63;;;;;;;;;;5116655;28;20211;-63
2024/01/20 04:54:49;;;;;;;2.70;2.50;;;;;;;;;;5117286;28;20257;-63
2024/01/20 04:57:17;;;;;;;2.85;2.40;;;;;;;;;;5116965;28;20237;-63
2024/01/20 04:59:47;;;;;;;2.88;2.58;;;;;;;;;;5116634;28;20211;-63
2024/01/20 05:02:14;;;;;;;2.78;2.20;;;;;;;;;;5117220;28;20211;-63
2024/01/20 05:04:42;;;;;;;2.80;2.50;;;;;;;;;;5117439;28;20477;-63
2024/01/20 05:07:09;;;;;;;2.40;2.20;;;;;;;;;;5117313;28;20206;-63
2024/01/20 05:09:36;;;;;;;2.53;2.33;;;;;;;;;;5117188;28;20590;-63
2024/01/20 05:12:04;;;;;;;2.40;2.20;;;;;;;;;;5116982;28;20597;-63
2024/01/20 05:14:32;;;;;;;2.53;2.30;;;;;;;;;;5116529;28;20200;-63
2024/01/20 05:17:01;;;;;;;2.90;2.60;;;;;;;;;;5116754;28;20223;-64
2024/01/20 05:19:29;;;;;;;2.55;2.35;;;;;;;;;;5116676;28;20203;-63
2024/01/20 05:21:56;;;;;;;2.42;2.22;;;;;;;;;;5116388;28;20202;-64
2024/01/20 05:24:24;;;;;;;2.53;2.33;;;;;;;;;;5116251;28;20203;-63
2024/01/20 05:26:51;;;;;;;2.55;2.35;;;;;;;;;;5116632;28;20230;-63
2024/01/20 05:29:19;;;;;;;3.08;2.40;;;;;;;;;;5116608;28;20211;-64
2024/01/20 05:31:46;;;;;;;2.38;2.17;;;;;;;;;;5117191;28;20489;-63
2024/01/20 05:34:15;;;;;;;2.35;2.15;;;;;;;;;;5119931;28;20214;-63
2024/01/20 05:36:42;;;;;;;2.35;2.15;;;;;;;;;;5120747;28;20490;-63
2024/01/20 05:39:10;;;;;;;2.47;2.28;;;;;;;;;;5119952;28;20203;-63
2024/01/20 05:41:37;;;;;;;3.03;2.72;;;;;;;;;;5120468;28;20213;-63
2024/01/20 05:44:04;;;;;;;2.30;2.10;;;;;;;;;;5120095;28;20207;-64
2024/01/20 05:46:32;;;;;;;2.38;2.17;;;;;;;;;;5120023;28;20238;-63
2024/01/20 05:49:00;;;;;;;2.60;2.30;;;;;;;;;;5120719;28;20452;-63
2024/01/20 05:51:28;;;;;;;2.50;2.30;;;;;;;;;;5120730;28;20210;-63
2024/01/20 05:53:56;;;;;;;2.50;2.30;;;;;;;;;;5120165;28;20203;-63
2024/01/20 05:56:24;;;;;;;2.50;2.30;;;;;;;;;;5119749;28;20211;-63
2024/01/20 05:58:51;;;;;;;2.55;2.35;;;;;;;;;;5119282;28;20466;-63
2024/01/20 06:01:19;;;;;;;2.50;2.30;;;;;;;;;;5119372;28;20226;-63
2024/01/20 06:03:46;;;;;;;2.90;2.58;;;;;;;;;;5120311;28;20228;-63
2024/01/20 06:06:14;;;;;;;2.63;2.42;;;;;;;;;;5120156;28;20614;-63
2024/01/20 06:08:43;;;;;;;2.60;2.40;;;;;;;;;;5120015;28;20590;-64
2024/01/20 06:11:10;;;;;;;2.40;2.20;;;;;;;;;;5119896;28;20210;-63
2024/01/20 06:13:38;;;;;;;2.65;2.17;;;;;;;;;;5119589;28;20209;-63
2024/01/20 06:16:06;;;;;;;2.40;2.20;;;;;;;;;;5119495;28;20591;-63
2024/01/20 06:18:33;;;;;;;2.60;2.40;;;;;;;;;;5119439;28;20261;-63
2024/01/20 06:21:01;;;;;;;2.45;2.25;;;;;;;;;;5119668;28;20203;-63
2024/01/20 06:23:29;;;;;;;2.45;2.25;;;;;;;;;;5119382;28;20210;-63
2024/01/20 06:25:59;;;;;;;2.42;2.22;;;;;;;;;;5119515;28;20582;-63
2024/01/20 06:28:26;;;;;;;2.58;2.38;;;;;;;;;;5119633;28;20221;-63
2024/01/20 06:30:54;;;;;;;2.28;2.08;;;;;;;;;;5119819;28;20203;-63
2024/01/20 06:33:21;;;;;;;2.35;2.15;;;;;;;;;;5119485;28;20222;-63
2024/01/20 06:35:50;;;;;;;2.50;2.30;;;;;;;;;;5119083;28;20203;-63
2024/01/20 06:38:17;;;;;;;2.35;2.15;;;;;;;;;;5119019;28;20223;-63
2024/01/20 06:40:44;;;;;;;2.33;2.13;;;;;;;;;;5119440;28;20218;-63
2024/01/20 06:43:13;;;;;;;2.38;2.17;;;;;;;;;;5118893;28;20211;-63
2024/01/20 06:45:41;;;;;;;2.60;2.40;;;;;;;;;;5119377;28;20217;-63
2024/01/20 06:48:10;;;;;;;2.30;2.08;;;;;;;;;;5119447;28;20199;-63
2024/01/20 06:50:43;;;;;;;2.60;2.30;;;;;;;;;;5119368;28;20210;-63
2024/01/20 06:53:10;;;;;;;2.40;2.20;;;;;;;;;;5119128;28;20218;-63
2024/01/20 06:55:38;;;;;;;2.60;2.20;;;;;;;;;;5119369;28;20237;-64
2024/01/20 06:58:05;;;;;;;2.50;2.30;;;;;;;;;;5119294;28;20223;-63
2024/01/20 07:00:34;;;;;;;2.75;2.47;;;;;;;;;;5118479;28;20537;-63
2024/01/20 07:03:02;;;;;;;2.30;2.10;;;;;;;;;;5118981;28;20218;-63
2024/01/20 07:05:30;;;;;;;2.50;2.30;;;;;;;;;;5118888;28;20195;-63
2024/01/20 07:07:57;;;;;;;2.60;2.40;;;;;;;;;;5119074;28;20210;-63
2024/01/20 07:10:24;;;;;;;2.60;2.40;;;;;;;;;;5118935;28;20203;-63
2024/01/20 07:12:52;;;;;;;2.17;1.98;;;;;;;;;;5118782;28;20214;-63
2024/01/20 07:15:19;;;;;;;2.47;2.28;;;;;;;;;;5118465;28;20195;-63
2024/01/20 07:17:48;;;;;;;2.65;2.13;;;;;;;;;;5118944;28;20231;-63
2024/01/20 07:20:16;;;;;;;2.33;2.13;;;;;;;;;;5118793;28;20203;-63
2024/01/20 07:22:44;;;;;;;2.58;2.10;;;;;;;;;;5118384;28;20207;-63
2024/01/20 07:25:11;;;;;;;2.08;1.88;;;;;;;;;;5118342;28;20298;-63
2024/01/20 07:27:39;;;;;;;2.15;1.95;;;;;;;;;;5118143;28;20206;-64
2024/01/20 07:30:07;;;;;;;2.45;2.25;;;;;;;;;;5118360;28;20229;-63
2024/01/20 07:32:35;;;;;;;2.30;2.05;;;;;;;;;;5118097;28;20209;-63
2024/01/20 07:35:04;;;;;;;2.20;1.95;;;;;;;;;;5118253;28;20203;-63
2024/01/20 07:37:35;;;;;;;2.50;2.22;;;;;;;;;;5117892;28;20219;-63
2024/01/20 07:40:04;;;;;;;2.30;2.10;;;;;;;;;;5118032;28;20210;-63
2024/01/20 07:42:32;;;;;;;2.25;2.05;;;;;;;;;;5117598;28;20207;-63
2024/01/20 07:45:00;;;;;;;2.25;2.05;;;;;;;;;;5118343;28;20572;-63
2024/01/20 07:47:27;;;;;;;2.55;2.35;;;;;;;;;;5117892;28;20522;-63
2024/01/20 07:49:54;;;;;;;2.10;1.90;;;;;;;;;;5117547;28;20203;-63
2024/01/20 07:52:23;;;;;;;2.40;2.20;;;;;;;;;;5116866;28;20583;-63
2024/01/20 07:54:50;;;;;;;2.28;2.08;;;;;;;;;;5116265;28;20707;-63
2024/01/20 07:57:18;;;;;;;2.42;2.22;;;;;;;;;;5117615;28;20234;-63
2024/01/20 07:59:45;;;;;;;2.38;2.17;;;;;;;;;;5118074;28;20203;-63
2024/01/20 08:02:14;;;;;;;2.50;2.30;;;;;;;;;;5117555;28;20469;-63
2024/01/20 08:04:41;;;;;;;2.13;1.92;;;;;;;;;;5117221;28;20301;-63
2024/01/20 08:07:09;;;;;;;2.25;1.90;;;;;;;;;;5117120;28;20213;-63
2024/01/20 08:09:37;;;;;;;2.20;2.00;;;;;;;;;;5117177;28;20483;-63
2024/01/20 08:12:06;;;;;;;2.40;2.20;;;;;;;;;;5117416;28;20209;-63
2024/01/20 08:14:33;;;;;;;2.90;2.20;;;;;;;;;;5117317;28;20203;-63
2024/01/20 08:17:00;;;;;;;2.50;2.00;;;;;;;;;;5117214;28;20202;-64
2024/01/20 08:19:28;;;;;;;2.42;2.22;;;;;;;;;;5116683;28;20213;-63
2024/01/20 08:21:55;;;;;;;3.10;2.00;;;;;;;;;;5116615;28;20221;-63
2024/01/20 08:24:23;;;;;;;2.05;1.90;;;;;;;;;;5116993;28;20602;-63
2024/01/20 08:26:51;;;;;;;2.40;2.13;;;;;;;;;;5116820;28;20195;-63
2024/01/20 08:29:19;;;;;;;2.20;2.00;;;;;;;;;;5116560;28;20199;-63
2024/01/20 08:31:47;;;;;;;3.45;2.53;;;;;;;;;;5117402;28;20214;-63
2024/01/20 08:34:14;;;;;;;2.67;1.95;;;;;;;;;;5116870;28;20203;-64
2024/01/20 08:36:41;;;;;;;3.88;2.28;;;;;;;;;;5116737;28;20206;-63
2024/01/20 08:39:09;;;;;;;2.45;2.25;;;;;;;;;;5116819;28;20648;-63
2024/01/20 08:41:37;;;;;;;2.83;2.22;;;;;;;;;;5117030;28;20195;-63
2024/01/20 08:44:05;;;;;;;3.67;2.33;;;;;;;;;;5116462;28;20575;-63
2024/01/20 08:46:33;;;;;;;6.10;4.90;;;;;;;;;;5116982;28;20202;-63
2024/01/20 08:49:00;;;;;;;18.65;13.85;;;;;;;;;;5116776;28;20199;-63
2024/01/20 08:51:27;;;;;;;14.40;10.80;;;;;;;;;;5117003;28;20213;-63
2024/01/20 08:53:55;;;;;;;12.73;10.02;;;;;;;;;;5116437;28;20214;-63
2024/01/20 08:56:22;;;;;;;11.10;8.90;;;;;;;;;;5117234;28;20212;-63
2024/01/20 08:58:49;;;;;;;11.98;8.93;;;;;;;;;;5116946;28;20237;-63
2024/01/20 09:01:18;;;;;;;11.55;9.13;;;;;;;;;;5116141;28;20234;-63
2024/01/20 09:03:46;;;;;;;12.38;8.98;;;;;;;;;;5116477;28;20221;-63
2024/01/20 09:06:15;;;;;;;11.80;8.43;;;;;;;;;;5117799;28;20203;-63
2024/01/20 09:08:42;;;;;;;11.75;8.35;;;;;;;;;;5119562;28;20230;-63
2024/01/20 09:11:09;;;;;;;11.50;8.27;;;;;;;;;;5119591;28;20199;-64
2024/01/20 09:13:37;;;;;;;12.32;9.63;;;;;;;;;;5119910;28;20199;-63
2024/01/20 09:16:04;;;;;;;32.33;25.98;;;;;;;;;;5120010;28;20210;-63
2024/01/20 09:18:33;;;;;;;31.88;25.38;;;;;;;;;;5118906;28;20230;-63
2024/01/20 09:21:01;;;;;;;26.52;20.15;;;;;;;;;;5120051;28;20225;-64
2024/01/20 09:23:28;;;;;;;22.25;18.30;;;;;;;;;;5119785;28;20670;-63
2024/01/20 09:25:55;;;;;;;22.90;18.05;;;;;;;;;;5119610;28;20202;-63
2024/01/20 09:28:23;;;;;;;20.98;17.15;;;;;;;;;;5119543;28;20199;-63
2024/01/20 09:30:50;;;;;;;23.88;16.75;;;;;;;;;;5119832;28;20463;-64
2024/01/20 09:33:18;;;;;;;21.13;17.10;;;;;;;;;;5119258;28;20203;-63
2024/01/20 09:35:47;;;;;;;18.55;14.48;;;;;;;;;;5119986;28;20209;-63
2024/01/20 09:38:14;;;;;;;18.33;14.27;;;;;;;;;;5118891;28;20230;-63
2024/01/20 09:40:41;;;;;;;17.45;14.52;;;;;;;;;;5118733;28;20195;-63
2024/01/20 09:43:09;;;;;;;19.08;14.48;;;;;;;;;;5119524;28;20207;-63
2024/01/20 09:45:38;;;;;;;16.67;13.68;;;;;;;;;;5118939;28;20463;-63
2024/01/20 09:48:07;;;;;;;15.98;13.60;;;;;;;;;;5118506;28;20199;-63
2024/01/20 09:50:34;;;;;;;16.30;13.20;;;;;;;;;;5118664;28;20523;-63
2024/01/20 09:53:05;;;;;;;15.32;12.38;;;;;;;;;;5119246;28;20481;-64
2024/01/20 09:55:32;;;;;;;16.23;12.18;;;;;;;;;;5119000;28;20203;-63
2024/01/20 09:58:00;;;;;;;13.57;11.43;;;;;;;;;;5119368;28;20618;-63
2024/01/20 10:00:28;;;;;;;14.13;11.57;;;;;;;;;;5118264;28;20252;-63
2024/01/20 10:02:56;;;;;;;14.07;10.30;;;;;;;;;;5117943;28;20294;-63
2024/01/20 10:05:25;;;;;;;12.73;10.57;;;;;;;;;;5118433;28;20306;-63
2024/01/20 10:07:52;;;;;;;11.38;9.80;;;;;;;;;;5117812;28;20210;-63
2024/01/20 10:10:21;;;;;;;11.82;9.80;;;;;;;;;;5118042;28;20632;-63
2024/01/20 10:12:51;;;;;;;13.05;9.70;;;;;;;;;;5118527;28;20683;-63
2024/01/20 10:15:21;;;;;;;29.75;21.42;;;;;;;;;;5118440;28;20211;-64
2024/01/20 10:17:48;;;;;;;44.60;32.17;;;;;;;;;;5117889;28;20246;-63
2024/01/20 10:20:22;;;;;;;42.30;30.70;;;;;;;;;;5118120;28;20210;-63
2024/01/20 10:22:49;;;;;;;31.88;23.85;;;;;;;;;;5118229;28;20497;-63
2024/01/20 10:25:19;;;;;;;30.80;22.88;;;;;;;;;;5118202;28;20303;-63
2024/01/20 10:27:48;;;;;;;29.77;22.85;;;;;;;;;;5124388;27;20214;-64
2024/01/20 10:30:17;;;;;;;28.83;22.27;;;;;;;;;;5139153;27;20202;-64
2024/01/20 10:32:45;;;;;;;28.55;20.80;;;;;;;;;;5138941;27;20272;-63
2024/01/20 10:35:13;;;;;;;26.15;20.10;;;;;;;;;;5138416;27;20202;-63
2024/01/20 10:37:42;;;;;;;25.10;19.33;;;;;;;;;;5139098;27;20316;-63
2024/01/20 10:40:12;;;;;;;106.93;60.28;;;;;;;;;;5138998;27;20233;-64
2024/01/20 10:42:43;;;;;;;124.25;68.95;;;;;;;;;;5138675;27;20218;-63
2024/01/20 10:45:16;;;;;;;244.00;138.90;;;;;;;;;;5138585;27;20202;-63
2024/01/20 10:47:47;;;;;;;223.77;126.88;;;;;;;;;;5138769;27;20289;-63
2024/01/20 10:50:14;;;;;;;182.35;107.60;;;;;;;;;;5138186;27;20202;-64
2024/01/20 10:52:42;;;;;;;175.23;99.85;;;;;;;;;;5138640;27;20567;-64
2024/01/20 10:55:11;;;;;;;155.25;93.15;;;;;;;;;;5138632;27;20202;-64
2024/01/20 10:57:38;;;;;;;153.90;90.78;;;;;;;;;;5138456;27;20559;-64
2024/01/20 11:00:08;;;;;;;146.88;86.80;;;;;;;;;;5137832;27;20603;-63
2024/01/20 11:02:38;;;;;;;144.52;83.40;;;;;;;;;;5139307;27;20194;-64
2024/01/20 11:05:18;;;;;;;137.32;79.00;;;;;;;;;;5138220;27;20497;-63
2024/01/20 11:07:55;;;;;;;133.73;75.65;;;;;;;;;;5137989;27;20207;-63
2024/01/20 11:10:24;;;;;;;125.28;71.53;;;;;;;;;;5137469;27;20484;-63
2024/01/20 11:13:00;;;;;;;114.40;67.18;;;;;;;;;;5127203;27;20203;-64
2024/01/20 11:15:30;;;;;;;117.00;66.53;;;;;;;;;;5117878;28;20210;-63
2024/01/20 11:17:58;;;;;;;104.97;62.20;;;;;;;;;;5116654;28;20268;-63
2024/01/20 11:20:26;;;;;;;98.75;58.63;;;;;;;;;;5116786;28;20237;-63
2024/01/20 11:22:54;;;;;;;97.25;58.05;;;;;;;;;;5116469;28;20633;-63
2024/01/20 11:25:23;;;;;;;91.35;55.65;;;;;;;;;;5117564;28;20572;-63
2024/01/20 11:27:51;;;;;;;84.15;53.80;;;;;;;;;;5117438;28;20744;-64
2024/01/20 11:30:26;;;;;;;79.90;50.03;;;;;;;;;;5116332;28;20199;-64
2024/01/20 11:32:54;;;;;;;75.18;49.72;;;;;;;;;;5116360;28;20199;-63
2024/01/20 11:35:23;;;;;;;77.63;48.38;;;;;;;;;;5116102;28;20210;-63
2024/01/20 11:37:51;;;;;;;70.13;45.38;;;;;;;;;;5116071;28;20195;-63
2024/01/20 11:40:18;;;;;;;67.38;44.63;;;;;;;;;;5116763;28;20326;-63
2024/01/20 11:42:46;;;;;;;65.38;42.67;;;;;;;;;;5117488;28;20591;-64
2024/01/20 11:45:13;;;;;;;64.18;41.33;;;;;;;;;;5116996;28;20218;-64
2024/01/20 11:47:41;;;;;;;59.67;38.97;;;;;;;;;;5116870;28;20202;-64
2024/01/20 11:50:09;;;;;;;62.78;40.70;;;;;;;;;;5117130;28;20198;-63
2024/01/20 11:52:38;;;;;;;55.72;37.42;;;;;;;;;;5116875;28;20203;-63
2024/01/20 11:55:06;;;;;;;57.22;37.30;;;;;;;;;;5116626;28;20622;-64
2024/01/20 11:57:33;;;;;;;55.63;35.55;;;;;;;;;;5116316;28;20203;-63
2024/01/20 12:00:02;;;;;;;51.65;34.83;;;;;;;;;;5115817;28;20229;-63
2024/01/20 12:02:30;;;;;;;49.60;34.17;;;;;;;;;;5116056;28;20214;-63
2024/01/20 12:04:58;;;;;;;50.60;31.65;;;;;;;;;;5116502;28;20237;-63
2024/01/20 12:07:25;;;;;;;42.85;31.02;;;;;;;;;;5115768;28;20205;-63
2024/01/20 12:09:54;;;;;;;44.22;31.08;;;;;;;;;;5116421;28;20567;-64
2024/01/20 12:12:22;;;;;;;41.85;28.83;;;;;;;;;;5116570;28;20305;-63
2024/01/20 12:14:50;;;;;;;41.38;28.60;;;;;;;;;;5116358;28;20202;-63
2024/01/20 12:17:22;;;;;;;37.28;26.30;;;;;;;;;;5116130;28;20528;-63
2024/01/20 12:19:49;;;;;;;37.13;26.77;;;;;;;;;;5115962;28;20326;-63
2024/01/20 12:22:17;;;;;;;36.65;25.67;;;;;;;;;;5116156;28;20199;-64
2024/01/20 12:24:47;;;;;;;34.75;24.25;;;;;;;;;;5116755;28;20591;-64
2024/01/20 12:27:16;;;;;;;32.55;23.38;;;;;;;;;;5117003;28;20671;-63
2024/01/20 12:29:43;;;;;;;32.40;22.73;;;;;;;;;;5116591;28;20489;-64
2024/01/20 12:32:11;;;;;;;33.55;22.60;;;;;;;;;;5116219;28;20203;-64
2024/01/20 12:34:38;;;;;;;29.90;21.42;;;;;;;;;;5116710;28;20199;-64
2024/01/20 12:37:06;;;;;;;30.73;21.92;;;;;;;;;;5116185;28;20239;-64
2024/01/20 12:39:33;;;;;;;28.20;20.23;;;;;;;;;;5115889;28;20219;-63
2024/01/20 12:42:01;;;;;;;30.17;20.90;;;;;;;;;;5118453;28;20464;-63
2024/01/20 12:44:30;;;;;;;25.33;18.70;;;;;;;;;;5120505;28;20600;-63
2024/01/20 12:46:57;;;;;;;26.77;19.52;;;;;;;;;;5120381;28;20214;-63
2024/01/20 12:49:25;;;;;;;26.13;18.63;;;;;;;;;;5119544;28;20206;-63
2024/01/20 12:51:52;;;;;;;25.65;17.42;;;;;;;;;;5119333;28;20604;-63
2024/01/20 12:54:19;;;;;;;24.75;18.50;;;;;;;;;;5120304;28;20575;-63
2024/01/20 12:56:47;;;;;;;24.17;17.00;;;;;;;;;;5120934;28;20203;-64
2024/01/20 12:59:15;;;;;;;22.20;16.38;;;;;;;;;;5119532;28;20229;-63
2024/01/20 13:01:43;;;;;;;23.63;16.88;;;;;;;;;;5119342;28;20233;-63
2024/01/20 13:04:11;;;;;;;20.80;15.60;;;;;;;;;;5119413;28;20209;-63
2024/01/20 13:06:38;;;;;;;19.67;14.68;;;;;;;;;;5119872;28;20474;-63
2024/01/20 13:09:08;;;;;;;20.42;15.27;;;;;;;;;;5119885;28;20210;-63
2024/01/20 13:11:36;;;;;;;20.55;14.85;;;;;;;;;;5119703;28;20203;-63
2024/01/20 13:14:03;;;;;;;19.70;14.98;;;;;;;;;;5119209;28;20199;-63
2024/01/20 13:16:31;;;;;;;17.88;12.88;;;;;;;;;;5119794;28;20203;-63
2024/01/20 13:19:00;;;;;;;19.05;13.63;;;;;;;;;;5119523;28;20218;-63
2024/01/20 13:21:27;;;;;;;16.42;12.52;;;;;;;;;;5120128;28;20203;-64
2024/01/20 13:23:55;;;;;;;16.52;12.80;;;;;;;;;;5120025;28;20491;-64
2024/01/20 13:26:22;;;;;;;14.13;11.25;;;;;;;;;;5120036;28;20211;-64
2024/01/20 13:28:50;;;;;;;17.58;13.10;;;;;;;;;;5119526;28;20575;-64
2024/01/20 13:31:19;;;;;;;15.73;12.50;;;;;;;;;;5119666;28;20203;-64
2024/01/20 13:33:46;;;;;;;14.00;11.13;;;;;;;;;;5119075;28;20203;-64
2024/01/20 13:36:15;;;;;;;15.20;11.27;;;;;;;;;;5119045;28;20471;-64
2024/01/20 13:38:43;;;;;;;16.42;11.25;;;;;;;;;;5119365;28;20640;-64
2024/01/20 13:41:11;;;;;;;12.32;9.93;;;;;;;;;;5118763;28;20211;-63
2024/01/20 13:43:38;;;;;;;13.80;10.25;;;;;;;;;;5119161;28;20203;-63
2024/01/20 13:46:05;;;;;;;12.82;9.63;;;;;;;;;;5119064;28;20210;-63
2024/01/20 13:48:33;;;;;;;12.18;9.68;;;;;;;;;;5119189;28;20199;-63
2024/01/20 13:51:00;;;;;;;12.63;9.68;;;;;;;;;;5118114;28;20207;-63
2024/01/20 13:53:30;;;;;;;12.07;9.35;;;;;;;;;;5117747;28;20562;-63
2024/01/20 13:55:57;;;;;;;12.00;8.98;;;;;;;;;;5119104;28;20210;-63
2024/01/20 13:58:25;;;;;;;11.02;9.00;;;;;;;;;;5118538;28;20214;-63
2024/01/20 14:00:52;;;;;;;12.35;9.48;;;;;;;;;;5118506;28;20241;-63
2024/01/20 14:03:20;;;;;;;10.98;8.80;;;;;;;;;;5118165;28;20215;-63
2024/01/20 14:05:49;;;;;;;10.85;8.32;;;;;;;;;;5118113;28;20203;-63
2024/01/20 14:08:16;;;;;;;10.07;7.95;;;;;;;;;;5117884;28;20201;-63
2024/01/20 14:10:45;;;;;;;10.73;8.48;;;;;;;;;;5117956;28;20257;-63
2024/01/20 14:13:13;;;;;;;10.23;8.52;;;;;;;;;;5117639;28;20237;-63
2024/01/20 14:15:40;;;;;;;9.52;8.27;;;;;;;;;;5117693;28;20199;-64
2024/01/20 14:18:08;;;;;;;9.15;7.63;;;;;;;;;;5117348;28;20218;-64
2024/01/20 14:20:36;;;;;;;9.23;7.55;;;;;;;;;;5118347;28;20237;-64
2024/01/20 14:23:03;;;;;;;8.45;7.07;;;;;;;;;;5118304;28;20206;-64
2024/01/20 14:25:31;;;;;;;8.68;7.53;;;;;;;;;;5117837;28;20207;-63
2024/01/20 14:28:00;;;;;;;8.65;7.20;;;;;;;;;;5118220;28;20203;-63
2024/01/20 14:30:28;;;;;;;8.82;7.30;;;;;;;;;;5118312;28;20212;-64
2024/01/20 14:32:55;;;;;;;7.82;6.70;;;;;;;;;;5118398;28;20218;-64
2024/01/20 14:35:23;;;;;;;7.97;6.55;;;;;;;;;;5117930;28;20747;-64
2024/01/20 14:37:51;;;;;;;7.68;6.40;;;;;;;;;;5118254;28;20206;-64